sensor_id;sensor_type;location;lat;lon;timestamp;P1;durP1;ratioP1;P2;durP2;ratioP2
4305;SDS011;2166;49.926;8.608;2023-05-10T00:01:49;0.00;;;0.00;;
4305;SDS011;2166;49.926;8.608;2023-05-10T00:04:19;0.00;;;0.00;;
4305;SDS011;2166;49.926;8.608;2023-05-10T00:06:48;0.10;;;0.10;;
4305;SDS011;2166;49.926;8.608;2023-05-10T00:09:18;0.10;;;0.10;;
4305;SDS011;2166;49.926;8.608;2023-05-10T00:11:46;0.00;;;0.00;;
4305;SDS011;2166;49.926;8.608;2023-05-10T00:14:17;0.10;;;0.10;;
4305;SDS011;2166;49.926;8.608;2023-05-10T00:16:46;0.00;;;0.00;;
4305;SDS011;2166;49.926;8.608;2023-05-10T00:19:14;0.05;;;0.05;;
4305;SDS011;2166;49.926;8.608;2023-05-10T00:21:42;0.00;;;0.00;;
4305;SDS011;2166;49.926;8.608;2023-05-10T00:24:11;0.08;;;0.08;;
4305;SDS011;2166;49.926;8.608;2023-05-10T00:26:40;0.10;;;0.10;;
4305;SDS011;2166;49.926;8.608;2023-05-10T00:29:08;0.10;;;0.10;;
4305;SDS011;2166;49.926;8.608;2023-05-10T00:31:38;0.10;;;0.10;;
4305;SDS011;2166;49.926;8.608;2023-05-10T00:34:08;0.28;;;0.28;;
4305;SDS011;2166;49.926;8.608;2023-05-10T00:36:37;0.05;;;0.05;;
4305;SDS011;2166;49.926;8.608;2023-05-10T00:39:06;0.10;;;0.10;;
4305;SDS011;2166;49.926;8.608;2023-05-10T00:41:35;0.10;;;0.10;;
4305;SDS011;2166;49.926;8.608;2023-05-10T00:44:05;0.00;;;0.00;;
4305;SDS011;2166;49.926;8.608;2023-05-10T00:46:34;0.00;;;0.00;;
4305;SDS011;2166;49.926;8.608;2023-05-10T00:49:05;0.00;;;0.00;;
4305;SDS011;2166;49.926;8.608;2023-05-10T00:51:34;0.00;;;0.00;;
4305;SDS011;2166;49.926;8.608;2023-05-10T00:54:04;0.10;;;0.10;;
4305;SDS011;2166;49.926;8.608;2023-05-10T00:56:33;0.10;;;0.10;;
4305;SDS011;2166;49.926;8.608;2023-05-10T00:59:02;0.10;;;0.10;;
4305;SDS011;2166;49.926;8.608;2023-05-10T01:01:31;0.08;;;0.08;;
4305;SDS011;2166;49.926;8.608;2023-05-10T01:04:00;0.00;;;0.00;;
4305;SDS011;2166;49.926;8.608;2023-05-10T01:06:31;0.45;;;0.45;;
4305;SDS011;2166;49.926;8.608;2023-05-10T01:09:00;0.00;;;0.00;;
4305;SDS011;2166;49.926;8.608;2023-05-10T01:11:29;0.00;;;0.00;;
4305;SDS011;2166;49.926;8.608;2023-05-10T01:13:57;0.03;;;0.03;;
4305;SDS011;2166;49.926;8.608;2023-05-10T01:16:27;0.10;;;0.10;;
4305;SDS011;2166;49.926;8.608;2023-05-10T01:19:00;0.10;;;0.10;;
4305;SDS011;2166;49.926;8.608;2023-05-10T01:21:33;0.00;;;0.00;;
4305;SDS011;2166;49.926;8.608;2023-05-10T01:24:17;0.08;;;0.08;;
4305;SDS011;2166;49.926;8.608;2023-05-10T01:27:18;0.00;;;0.00;;
4305;SDS011;2166;49.926;8.608;2023-05-10T01:33:07;0.10;;;0.10;;
4305;SDS011;2166;49.926;8.608;2023-05-10T01:35:46;0.05;;;0.05;;
4305;SDS011;2166;49.926;8.608;2023-05-10T01:38:22;0.05;;;0.05;;
4305;SDS011;2166;49.926;8.608;2023-05-10T01:41:01;0.00;;;0.00;;
4305;SDS011;2166;49.926;8.608;2023-05-10T01:43:42;0.10;;;0.10;;
4305;SDS011;2166;49.926;8.608;2023-05-10T01:46:20;0.00;;;0.00;;
4305;SDS011;2166;49.926;8.608;2023-05-10T01:48:58;0.00;;;0.00;;
4305;SDS011;2166;49.926;8.608;2023-05-10T01:51:35;0.08;;;0.08;;
4305;SDS011;2166;49.926;8.608;2023-05-10T01:54:07;0.10;;;0.10;;
4305;SDS011;2166;49.926;8.608;2023-05-10T01:56:42;0.08;;;0.08;;
4305;SDS011;2166;49.926;8.608;2023-05-10T01:59:17;0.00;;;0.00;;
4305;SDS011;2166;49.926;8.608;2023-05-10T02:01:47;0.10;;;0.10;;
4305;SDS011;2166;49.926;8.608;2023-05-10T02:04:21;0.10;;;0.10;;
4305;SDS011;2166;49.926;8.608;2023-05-10T02:06:51;0.10;;;0.10;;
4305;SDS011;2166;49.926;8.608;2023-05-10T02:09:22;0.10;;;0.10;;
4305;SDS011;2166;49.926;8.608;2023-05-10T02:11:56;0.10;;;0.10;;
4305;SDS011;2166;49.926;8.608;2023-05-10T02:14:27;0.20;;;0.20;;
4305;SDS011;2166;49.926;8.608;2023-05-10T02:16:58;0.00;;;0.00;;
4305;SDS011;2166;49.926;8.608;2023-05-10T02:19:34;0.00;;;0.00;;
4305;SDS011;2166;49.926;8.608;2023-05-10T02:22:05;0.10;;;0.10;;
4305;SDS011;2166;49.926;8.608;2023-05-10T02:24:35;0.00;;;0.00;;
4305;SDS011;2166;49.926;8.608;2023-05-10T02:27:08;0.00;;;0.00;;
4305;SDS011;2166;49.926;8.608;2023-05-10T02:29:41;0.00;;;0.00;;
4305;SDS011;2166;49.926;8.608;2023-05-10T02:32:10;0.08;;;0.08;;
4305;SDS011;2166;49.926;8.608;2023-05-10T02:34:51;0.08;;;0.08;;
4305;SDS011;2166;49.926;8.608;2023-05-10T02:37:20;0.00;;;0.00;;
4305;SDS011;2166;49.926;8.608;2023-05-10T02:39:51;0.00;;;0.00;;
4305;SDS011;2166;49.926;8.608;2023-05-10T02:42:23;0.10;;;0.10;;
4305;SDS011;2166;49.926;8.608;2023-05-10T02:44:58;0.10;;;0.10;;
4305;SDS011;2166;49.926;8.608;2023-05-10T02:47:29;0.00;;;0.00;;
4305;SDS011;2166;49.926;8.608;2023-05-10T02:49:59;0.10;;;0.10;;
4305;SDS011;2166;49.926;8.608;2023-05-10T02:52:36;0.03;;;0.03;;
4305;SDS011;2166;49.926;8.608;2023-05-10T02:55:09;0.77;;;0.45;;
4305;SDS011;2166;49.926;8.608;2023-05-10T02:57:41;0.00;;;0.00;;
4305;SDS011;2166;49.926;8.608;2023-05-10T03:00:14;0.00;;;0.00;;
4305;SDS011;2166;49.926;8.608;2023-05-10T03:02:44;38.20;;;1.30;;
4305;SDS011;2166;49.926;8.608;2023-05-10T03:05:17;0.10;;;0.10;;
4305;SDS011;2166;49.926;8.608;2023-05-10T03:07:47;0.00;;;0.00;;
4305;SDS011;2166;49.926;8.608;2023-05-10T03:10:18;0.00;;;0.00;;
4305;SDS011;2166;49.926;8.608;2023-05-10T03:12:55;0.00;;;0.00;;
4305;SDS011;2166;49.926;8.608;2023-05-10T03:15:37;0.00;;;0.00;;
4305;SDS011;2166;49.926;8.608;2023-05-10T03:18:15;0.00;;;0.00;;
4305;SDS011;2166;49.926;8.608;2023-05-10T03:20:51;0.10;;;0.10;;
4305;SDS011;2166;49.926;8.608;2023-05-10T03:23:26;0.05;;;0.05;;
4305;SDS011;2166;49.926;8.608;2023-05-10T03:25:58;0.10;;;0.10;;
4305;SDS011;2166;49.926;8.608;2023-05-10T03:28:29;0.10;;;0.10;;
4305;SDS011;2166;49.926;8.608;2023-05-10T03:31:02;0.10;;;0.10;;
4305;SDS011;2166;49.926;8.608;2023-05-10T03:33:36;0.07;;;0.07;;
4305;SDS011;2166;49.926;8.608;2023-05-10T03:36:22;0.00;;;0.00;;
4305;SDS011;2166;49.926;8.608;2023-05-10T03:38:52;0.00;;;0.00;;
4305;SDS011;2166;49.926;8.608;2023-05-10T03:41:21;0.10;;;0.10;;
4305;SDS011;2166;49.926;8.608;2023-05-10T03:43:53;0.03;;;0.03;;
4305;SDS011;2166;49.926;8.608;2023-05-10T03:46:25;0.85;;;0.85;;
4305;SDS011;2166;49.926;8.608;2023-05-10T03:48:54;0.20;;;0.20;;
4305;SDS011;2166;49.926;8.608;2023-05-10T03:51:25;0.10;;;0.10;;
4305;SDS011;2166;49.926;8.608;2023-05-10T03:53:55;0.10;;;0.10;;
4305;SDS011;2166;49.926;8.608;2023-05-10T03:56:24;0.05;;;0.05;;
4305;SDS011;2166;49.926;8.608;2023-05-10T03:58:53;0.00;;;0.00;;
4305;SDS011;2166;49.926;8.608;2023-05-10T04:01:23;0.15;;;0.15;;
4305;SDS011;2166;49.926;8.608;2023-05-10T04:06:50;0.00;;;0.00;;
4305;SDS011;2166;49.926;8.608;2023-05-10T04:09:19;0.00;;;0.00;;
4305;SDS011;2166;49.926;8.608;2023-05-10T04:11:47;0.10;;;0.10;;
4305;SDS011;2166;49.926;8.608;2023-05-10T04:14:19;0.10;;;0.10;;
4305;SDS011;2166;49.926;8.608;2023-05-10T04:16:48;0.05;;;0.05;;
4305;SDS011;2166;49.926;8.608;2023-05-10T04:19:17;0.35;;;0.35;;
4305;SDS011;2166;49.926;8.608;2023-05-10T04:21:47;0.00;;;0.00;;
4305;SDS011;2166;49.926;8.608;2023-05-10T04:24:17;0.17;;;0.17;;
4305;SDS011;2166;49.926;8.608;2023-05-10T04:26:45;0.10;;;0.10;;
4305;SDS011;2166;49.926;8.608;2023-05-10T04:29:16;0.10;;;0.10;;
4305;SDS011;2166;49.926;8.608;2023-05-10T04:31:45;0.30;;;0.30;;
4305;SDS011;2166;49.926;8.608;2023-05-10T04:34:15;0.10;;;0.10;;
4305;SDS011;2166;49.926;8.608;2023-05-10T04:36:45;0.00;;;0.00;;
4305;SDS011;2166;49.926;8.608;2023-05-10T04:39:13;0.17;;;0.17;;
4305;SDS011;2166;49.926;8.608;2023-05-10T04:41:43;0.13;;;0.13;;
4305;SDS011;2166;49.926;8.608;2023-05-10T04:44:13;0.08;;;0.08;;
4305;SDS011;2166;49.926;8.608;2023-05-10T04:46:42;0.00;;;0.00;;
4305;SDS011;2166;49.926;8.608;2023-05-10T04:49:10;0.20;;;0.20;;
4305;SDS011;2166;49.926;8.608;2023-05-10T04:51:44;0.10;;;0.10;;
4305;SDS011;2166;49.926;8.608;2023-05-10T04:54:13;0.00;;;0.00;;
4305;SDS011;2166;49.926;8.608;2023-05-10T04:56:41;0.10;;;0.10;;
4305;SDS011;2166;49.926;8.608;2023-05-10T04:59:12;0.08;;;0.08;;
4305;SDS011;2166;49.926;8.608;2023-05-10T05:01:40;0.10;;;0.10;;
4305;SDS011;2166;49.926;8.608;2023-05-10T05:04:11;0.10;;;0.10;;
4305;SDS011;2166;49.926;8.608;2023-05-10T05:06:43;0.08;;;0.08;;
4305;SDS011;2166;49.926;8.608;2023-05-10T05:09:14;0.00;;;0.00;;
4305;SDS011;2166;49.926;8.608;2023-05-10T05:11:46;0.10;;;0.10;;
4305;SDS011;2166;49.926;8.608;2023-05-10T05:14:16;0.80;;;0.40;;
4305;SDS011;2166;49.926;8.608;2023-05-10T05:16:47;0.00;;;0.00;;
4305;SDS011;2166;49.926;8.608;2023-05-10T05:19:16;0.10;;;0.10;;
4305;SDS011;2166;49.926;8.608;2023-05-10T05:21:45;0.05;;;0.05;;
4305;SDS011;2166;49.926;8.608;2023-05-10T05:24:13;0.00;;;0.00;;
4305;SDS011;2166;49.926;8.608;2023-05-10T05:26:42;0.20;;;0.20;;
4305;SDS011;2166;49.926;8.608;2023-05-10T05:29:19;0.10;;;0.10;;
4305;SDS011;2166;49.926;8.608;2023-05-10T05:31:48;0.20;;;0.20;;
4305;SDS011;2166;49.926;8.608;2023-05-10T05:34:22;0.00;;;0.00;;
4305;SDS011;2166;49.926;8.608;2023-05-10T05:36:52;0.50;;;0.50;;
4305;SDS011;2166;49.926;8.608;2023-05-10T05:39:21;0.10;;;0.10;;
4305;SDS011;2166;49.926;8.608;2023-05-10T05:41:49;0.00;;;0.00;;
4305;SDS011;2166;49.926;8.608;2023-05-10T05:44:20;0.10;;;0.10;;
4305;SDS011;2166;49.926;8.608;2023-05-10T05:46:48;0.22;;;0.22;;
4305;SDS011;2166;49.926;8.608;2023-05-10T05:49:17;0.00;;;0.00;;
4305;SDS011;2166;49.926;8.608;2023-05-10T05:51:46;0.35;;;0.35;;
4305;SDS011;2166;49.926;8.608;2023-05-10T05:54:16;0.00;;;0.00;;
4305;SDS011;2166;49.926;8.608;2023-05-10T05:56:45;0.05;;;0.05;;
4305;SDS011;2166;49.926;8.608;2023-05-10T05:59:14;0.10;;;0.10;;
4305;SDS011;2166;49.926;8.608;2023-05-10T06:01:45;0.00;;;0.00;;
4305;SDS011;2166;49.926;8.608;2023-05-10T06:04:14;0.13;;;0.13;;
4305;SDS011;2166;49.926;8.608;2023-05-10T06:06:43;0.10;;;0.10;;
4305;SDS011;2166;49.926;8.608;2023-05-10T06:09:11;0.00;;;0.00;;
4305;SDS011;2166;49.926;8.608;2023-05-10T06:11:40;0.00;;;0.00;;
4305;SDS011;2166;49.926;8.608;2023-05-10T06:14:09;0.10;;;0.10;;
4305;SDS011;2166;49.926;8.608;2023-05-10T06:16:38;0.08;;;0.08;;
4305;SDS011;2166;49.926;8.608;2023-05-10T06:19:09;0.10;;;0.10;;
4305;SDS011;2166;49.926;8.608;2023-05-10T06:21:39;0.15;;;0.15;;
4305;SDS011;2166;49.926;8.608;2023-05-10T06:24:07;1.98;;;1.20;;
4305;SDS011;2166;49.926;8.608;2023-05-10T06:26:36;0.10;;;0.10;;
4305;SDS011;2166;49.926;8.608;2023-05-10T06:29:07;0.30;;;0.30;;
4305;SDS011;2166;49.926;8.608;2023-05-10T06:31:37;0.00;;;0.00;;
4305;SDS011;2166;49.926;8.608;2023-05-10T06:34:05;0.10;;;0.10;;
4305;SDS011;2166;49.926;8.608;2023-05-10T06:36:37;1.77;;;1.00;;
4305;SDS011;2166;49.926;8.608;2023-05-10T06:39:06;0.32;;;0.32;;
4305;SDS011;2166;49.926;8.608;2023-05-10T06:41:35;0.00;;;0.00;;
4305;SDS011;2166;49.926;8.608;2023-05-10T06:44:04;0.10;;;0.10;;
4305;SDS011;2166;49.926;8.608;2023-05-10T06:46:32;0.05;;;0.05;;
4305;SDS011;2166;49.926;8.608;2023-05-10T06:49:01;0.10;;;0.10;;
4305;SDS011;2166;49.926;8.608;2023-05-10T06:51:32;0.10;;;0.10;;
4305;SDS011;2166;49.926;8.608;2023-05-10T06:54:02;0.10;;;0.10;;
4305;SDS011;2166;49.926;8.608;2023-05-10T06:56:31;0.00;;;0.00;;
4305;SDS011;2166;49.926;8.608;2023-05-10T06:59:02;0.15;;;0.15;;
4305;SDS011;2166;49.926;8.608;2023-05-10T07:01:31;0.20;;;0.20;;
4305;SDS011;2166;49.926;8.608;2023-05-10T07:04:00;0.10;;;0.10;;
4305;SDS011;2166;49.926;8.608;2023-05-10T07:06:29;0.10;;;0.10;;
4305;SDS011;2166;49.926;8.608;2023-05-10T07:08:59;0.47;;;0.47;;
4305;SDS011;2166;49.926;8.608;2023-05-10T07:11:29;0.05;;;0.05;;
4305;SDS011;2166;49.926;8.608;2023-05-10T07:13:58;0.00;;;0.00;;
4305;SDS011;2166;49.926;8.608;2023-05-10T07:16:27;0.35;;;0.35;;
4305;SDS011;2166;49.926;8.608;2023-05-10T07:18:56;0.00;;;0.00;;
4305;SDS011;2166;49.926;8.608;2023-05-10T07:21:25;0.00;;;0.00;;
4305;SDS011;2166;49.926;8.608;2023-05-10T07:23:55;0.30;;;0.30;;
4305;SDS011;2166;49.926;8.608;2023-05-10T07:26:24;1.00;;;0.93;;
4305;SDS011;2166;49.926;8.608;2023-05-10T07:28:54;0.55;;;0.55;;
4305;SDS011;2166;49.926;8.608;2023-05-10T07:31:23;0.10;;;0.10;;
4305;SDS011;2166;49.926;8.608;2023-05-10T07:33:52;0.65;;;0.65;;
4305;SDS011;2166;49.926;8.608;2023-05-10T07:36:22;0.20;;;0.20;;
4305;SDS011;2166;49.926;8.608;2023-05-10T07:38:50;0.30;;;0.30;;
4305;SDS011;2166;49.926;8.608;2023-05-10T07:41:20;0.93;;;0.93;;
4305;SDS011;2166;49.926;8.608;2023-05-10T07:43:49;0.63;;;0.63;;
4305;SDS011;2166;49.926;8.608;2023-05-10T07:46:21;0.00;;;0.00;;
4305;SDS011;2166;49.926;8.608;2023-05-10T07:48:49;0.25;;;0.25;;
4305;SDS011;2166;49.926;8.608;2023-05-10T07:51:18;0.17;;;0.17;;
4305;SDS011;2166;49.926;8.608;2023-05-10T07:53:47;0.00;;;0.00;;
4305;SDS011;2166;49.926;8.608;2023-05-10T07:56:20;0.10;;;0.10;;
4305;SDS011;2166;49.926;8.608;2023-05-10T07:58:50;0.00;;;0.00;;
4305;SDS011;2166;49.926;8.608;2023-05-10T08:01:20;0.10;;;0.10;;
4305;SDS011;2166;49.926;8.608;2023-05-10T08:03:49;0.13;;;0.13;;
4305;SDS011;2166;49.926;8.608;2023-05-10T08:06:21;0.15;;;0.15;;
4305;SDS011;2166;49.926;8.608;2023-05-10T08:08:49;0.10;;;0.10;;
4305;SDS011;2166;49.926;8.608;2023-05-10T08:11:20;0.00;;;0.00;;
4305;SDS011;2166;49.926;8.608;2023-05-10T08:13:49;0.00;;;0.00;;
4305;SDS011;2166;49.926;8.608;2023-05-10T08:16:19;0.00;;;0.00;;
4305;SDS011;2166;49.926;8.608;2023-05-10T08:18:50;0.00;;;0.00;;
4305;SDS011;2166;49.926;8.608;2023-05-10T08:21:21;0.00;;;0.00;;
4305;SDS011;2166;49.926;8.608;2023-05-10T08:23:50;0.10;;;0.10;;
4305;SDS011;2166;49.926;8.608;2023-05-10T08:26:19;0.28;;;0.28;;
4305;SDS011;2166;49.926;8.608;2023-05-10T08:28:48;0.00;;;0.00;;
4305;SDS011;2166;49.926;8.608;2023-05-10T08:31:16;0.00;;;0.00;;
4305;SDS011;2166;49.926;8.608;2023-05-10T08:33:47;0.10;;;0.10;;
4305;SDS011;2166;49.926;8.608;2023-05-10T08:36:18;0.10;;;0.10;;
4305;SDS011;2166;49.926;8.608;2023-05-10T08:38:49;0.03;;;0.03;;
4305;SDS011;2166;49.926;8.608;2023-05-10T08:41:19;0.00;;;0.00;;
4305;SDS011;2166;49.926;8.608;2023-05-10T08:43:49;0.10;;;0.10;;
4305;SDS011;2166;49.926;8.608;2023-05-10T08:46:18;0.00;;;0.00;;
4305;SDS011;2166;49.926;8.608;2023-05-10T08:48:50;0.80;;;0.63;;
4305;SDS011;2166;49.926;8.608;2023-05-10T08:51:20;0.10;;;0.10;;
4305;SDS011;2166;49.926;8.608;2023-05-10T08:53:53;0.10;;;0.10;;
4305;SDS011;2166;49.926;8.608;2023-05-10T08:56:22;0.00;;;0.00;;
4305;SDS011;2166;49.926;8.608;2023-05-10T08:58:51;0.10;;;0.10;;
4305;SDS011;2166;49.926;8.608;2023-05-10T09:01:21;0.00;;;0.00;;
4305;SDS011;2166;49.926;8.608;2023-05-10T09:03:54;0.08;;;0.08;;
4305;SDS011;2166;49.926;8.608;2023-05-10T09:06:24;0.00;;;0.00;;
4305;SDS011;2166;49.926;8.608;2023-05-10T09:08:53;0.10;;;0.10;;
4305;SDS011;2166;49.926;8.608;2023-05-10T09:11:22;10.13;;;1.05;;
4305;SDS011;2166;49.926;8.608;2023-05-10T09:13:51;0.00;;;0.00;;
4305;SDS011;2166;49.926;8.608;2023-05-10T09:16:20;0.08;;;0.08;;
4305;SDS011;2166;49.926;8.608;2023-05-10T09:18:50;0.10;;;0.10;;
4305;SDS011;2166;49.926;8.608;2023-05-10T09:21:22;0.00;;;0.00;;
4305;SDS011;2166;49.926;8.608;2023-05-10T09:23:51;0.00;;;0.00;;
4305;SDS011;2166;49.926;8.608;2023-05-10T09:26:22;0.00;;;0.00;;
4305;SDS011;2166;49.926;8.608;2023-05-10T09:28:52;0.05;;;0.05;;
4305;SDS011;2166;49.926;8.608;2023-05-10T09:31:22;0.20;;;0.20;;
4305;SDS011;2166;49.926;8.608;2023-05-10T09:33:52;0.20;;;0.20;;
4305;SDS011;2166;49.926;8.608;2023-05-10T09:36:23;0.15;;;0.15;;
4305;SDS011;2166;49.926;8.608;2023-05-10T09:38:51;0.10;;;0.10;;
4305;SDS011;2166;49.926;8.608;2023-05-10T09:41:21;0.00;;;0.00;;
4305;SDS011;2166;49.926;8.608;2023-05-10T09:43:55;0.38;;;0.38;;
4305;SDS011;2166;49.926;8.608;2023-05-10T09:46:27;0.10;;;0.10;;
4305;SDS011;2166;49.926;8.608;2023-05-10T09:48:56;0.13;;;0.13;;
4305;SDS011;2166;49.926;8.608;2023-05-10T09:51:28;0.00;;;0.00;;
4305;SDS011;2166;49.926;8.608;2023-05-10T09:56:44;0.00;;;0.00;;
4305;SDS011;2166;49.926;8.608;2023-05-10T09:59:13;0.00;;;0.00;;
4305;SDS011;2166;49.926;8.608;2023-05-10T10:01:48;0.00;;;0.00;;
4305;SDS011;2166;49.926;8.608;2023-05-10T10:04:18;0.10;;;0.10;;
4305;SDS011;2166;49.926;8.608;2023-05-10T10:06:59;0.20;;;0.20;;
4305;SDS011;2166;49.926;8.608;2023-05-10T10:09:32;0.10;;;0.10;;
4305;SDS011;2166;49.926;8.608;2023-05-10T10:12:02;0.10;;;0.10;;
4305;SDS011;2166;49.926;8.608;2023-05-10T10:14:33;0.10;;;0.10;;
4305;SDS011;2166;49.926;8.608;2023-05-10T10:17:19;0.10;;;0.10;;
4305;SDS011;2166;49.926;8.608;2023-05-10T10:19:52;0.00;;;0.00;;
4305;SDS011;2166;49.926;8.608;2023-05-10T10:22:25;0.10;;;0.10;;
4305;SDS011;2166;49.926;8.608;2023-05-10T10:24:57;0.20;;;0.20;;
4305;SDS011;2166;49.926;8.608;2023-05-10T10:27:32;0.03;;;0.03;;
4305;SDS011;2166;49.926;8.608;2023-05-10T10:30:13;0.10;;;0.10;;
4305;SDS011;2166;49.926;8.608;2023-05-10T10:33:06;0.00;;;0.00;;
4305;SDS011;2166;49.926;8.608;2023-05-10T10:35:55;0.00;;;0.00;;
4305;SDS011;2166;49.926;8.608;2023-05-10T10:38:56;0.00;;;0.00;;
4305;SDS011;2166;49.926;8.608;2023-05-10T10:41:30;0.10;;;0.10;;
4305;SDS011;2166;49.926;8.608;2023-05-10T10:47:24;0.00;;;0.00;;
4305;SDS011;2166;49.926;8.608;2023-05-10T10:50:03;0.00;;;0.00;;
4305;SDS011;2166;49.926;8.608;2023-05-10T10:52:33;0.10;;;0.10;;
4305;SDS011;2166;49.926;8.608;2023-05-10T10:55:08;0.00;;;0.00;;
4305;SDS011;2166;49.926;8.608;2023-05-10T10:57:43;0.00;;;0.00;;
4305;SDS011;2166;49.926;8.608;2023-05-10T11:00:23;0.10;;;0.10;;
4305;SDS011;2166;49.926;8.608;2023-05-10T11:02:55;0.10;;;0.10;;
4305;SDS011;2166;49.926;8.608;2023-05-10T11:08:16;0.08;;;0.08;;
4305;SDS011;2166;49.926;8.608;2023-05-10T11:11:05;0.10;;;0.10;;
4305;SDS011;2166;49.926;8.608;2023-05-10T11:13:38;0.10;;;0.10;;
4305;SDS011;2166;49.926;8.608;2023-05-10T11:16:12;0.10;;;0.10;;
4305;SDS011;2166;49.926;8.608;2023-05-10T11:18:53;0.65;;;0.65;;
4305;SDS011;2166;49.926;8.608;2023-05-10T11:21:25;0.10;;;0.10;;
4305;SDS011;2166;49.926;8.608;2023-05-10T11:23:54;0.10;;;0.10;;
4305;SDS011;2166;49.926;8.608;2023-05-10T11:26:29;0.00;;;0.00;;
4305;SDS011;2166;49.926;8.608;2023-05-10T11:29:01;0.08;;;0.08;;
4305;SDS011;2166;49.926;8.608;2023-05-10T11:31:31;0.05;;;0.05;;
4305;SDS011;2166;49.926;8.608;2023-05-10T11:34:00;0.00;;;0.00;;
4305;SDS011;2166;49.926;8.608;2023-05-10T11:36:34;0.00;;;0.00;;
4305;SDS011;2166;49.926;8.608;2023-05-10T11:39:04;0.10;;;0.10;;
4305;SDS011;2166;49.926;8.608;2023-05-10T11:41:35;0.00;;;0.00;;
4305;SDS011;2166;49.926;8.608;2023-05-10T11:44:03;0.10;;;0.10;;
4305;SDS011;2166;49.926;8.608;2023-05-10T11:46:32;0.10;;;0.10;;
4305;SDS011;2166;49.926;8.608;2023-05-10T11:49:00;0.00;;;0.00;;
4305;SDS011;2166;49.926;8.608;2023-05-10T11:51:33;0.00;;;0.00;;
4305;SDS011;2166;49.926;8.608;2023-05-10T11:54:05;0.10;;;0.10;;
4305;SDS011;2166;49.926;8.608;2023-05-10T11:56:37;0.00;;;0.00;;
4305;SDS011;2166;49.926;8.608;2023-05-10T11:59:07;0.00;;;0.00;;
4305;SDS011;2166;49.926;8.608;2023-05-10T12:01:35;0.00;;;0.00;;
4305;SDS011;2166;49.926;8.608;2023-05-10T12:04:04;0.10;;;0.10;;
4305;SDS011;2166;49.926;8.608;2023-05-10T12:06:36;0.00;;;0.00;;
4305;SDS011;2166;49.926;8.608;2023-05-10T12:09:08;0.00;;;0.00;;
4305;SDS011;2166;49.926;8.608;2023-05-10T12:11:39;1.35;;;0.40;;
4305;SDS011;2166;49.926;8.608;2023-05-10T12:14:10;1.80;;;0.60;;
4305;SDS011;2166;49.926;8.608;2023-05-10T12:16:42;0.88;;;0.40;;
4305;SDS011;2166;49.926;8.608;2023-05-10T12:19:11;4.93;;;0.40;;
4305;SDS011;2166;49.926;8.608;2023-05-10T12:21:40;1.27;;;0.35;;
4305;SDS011;2166;49.926;8.608;2023-05-10T12:24:09;0.68;;;0.40;;
4305;SDS011;2166;49.926;8.608;2023-05-10T12:26:40;1.02;;;0.50;;
4305;SDS011;2166;49.926;8.608;2023-05-10T12:29:11;2.60;;;0.40;;
4305;SDS011;2166;49.926;8.608;2023-05-10T12:31:48;0.30;;;0.30;;
4305;SDS011;2166;49.926;8.608;2023-05-10T12:34:29;2.53;;;0.38;;
4305;SDS011;2166;49.926;8.608;2023-05-10T12:36:59;1.30;;;0.50;;
4305;SDS011;2166;49.926;8.608;2023-05-10T12:39:38;2.63;;;0.50;;
4305;SDS011;2166;49.926;8.608;2023-05-10T12:42:09;4.13;;;0.40;;
4305;SDS011;2166;49.926;8.608;2023-05-10T12:44:38;3.22;;;0.43;;
4305;SDS011;2166;49.926;8.608;2023-05-10T12:47:07;0.40;;;0.38;;
4305;SDS011;2166;49.926;8.608;2023-05-10T12:49:36;0.93;;;0.35;;
4305;SDS011;2166;49.926;8.608;2023-05-10T12:52:04;2.13;;;0.25;;
4305;SDS011;2166;49.926;8.608;2023-05-10T12:54:35;0.75;;;0.20;;
4305;SDS011;2166;49.926;8.608;2023-05-10T12:57:04;1.10;;;0.30;;
4305;SDS011;2166;49.926;8.608;2023-05-10T12:59:34;3.30;;;0.40;;
4305;SDS011;2166;49.926;8.608;2023-05-10T13:02:06;0.88;;;0.30;;
4305;SDS011;2166;49.926;8.608;2023-05-10T13:04:34;0.60;;;0.30;;
4305;SDS011;2166;49.926;8.608;2023-05-10T13:07:06;1.75;;;0.40;;
4305;SDS011;2166;49.926;8.608;2023-05-10T13:09:34;2.63;;;0.40;;
4305;SDS011;2166;49.926;8.608;2023-05-10T13:12:03;3.03;;;0.20;;
4305;SDS011;2166;49.926;8.608;2023-05-10T13:14:37;2.17;;;0.55;;
4305;SDS011;2166;49.926;8.608;2023-05-10T13:17:06;2.70;;;0.50;;
4305;SDS011;2166;49.926;8.608;2023-05-10T13:19:36;1.25;;;0.47;;
4305;SDS011;2166;49.926;8.608;2023-05-10T13:22:05;1.10;;;0.50;;
4305;SDS011;2166;49.926;8.608;2023-05-10T13:24:34;2.25;;;0.60;;
4305;SDS011;2166;49.926;8.608;2023-05-10T13:27:03;2.58;;;0.52;;
4305;SDS011;2166;49.926;8.608;2023-05-10T13:29:31;1.17;;;0.40;;
4305;SDS011;2166;49.926;8.608;2023-05-10T13:32:03;1.85;;;0.60;;
4305;SDS011;2166;49.926;8.608;2023-05-10T13:34:35;1.40;;;0.50;;
4305;SDS011;2166;49.926;8.608;2023-05-10T13:37:04;4.07;;;0.98;;
4305;SDS011;2166;49.926;8.608;2023-05-10T13:39:32;1.65;;;0.80;;
4305;SDS011;2166;49.926;8.608;2023-05-10T13:42:01;3.17;;;0.98;;
4305;SDS011;2166;49.926;8.608;2023-05-10T13:44:29;2.45;;;0.90;;
4305;SDS011;2166;49.926;8.608;2023-05-10T13:47:00;2.20;;;0.82;;
4305;SDS011;2166;49.926;8.608;2023-05-10T13:49:30;0.98;;;0.57;;
4305;SDS011;2166;49.926;8.608;2023-05-10T13:52:03;3.13;;;1.25;;
4305;SDS011;2166;49.926;8.608;2023-05-10T13:54:33;2.78;;;0.70;;
4305;SDS011;2166;49.926;8.608;2023-05-10T13:57:02;3.17;;;0.38;;
4305;SDS011;2166;49.926;8.608;2023-05-10T13:59:30;0.90;;;0.50;;
4305;SDS011;2166;49.926;8.608;2023-05-10T14:02:00;4.28;;;0.52;;
4305;SDS011;2166;49.926;8.608;2023-05-10T14:04:31;3.05;;;0.43;;
4305;SDS011;2166;49.926;8.608;2023-05-10T14:07:00;2.20;;;0.55;;
4305;SDS011;2166;49.926;8.608;2023-05-10T14:09:30;5.13;;;0.80;;
4305;SDS011;2166;49.926;8.608;2023-05-10T14:12:00;6.10;;;0.70;;
4305;SDS011;2166;49.926;8.608;2023-05-10T14:14:29;3.92;;;0.57;;
4305;SDS011;2166;49.926;8.608;2023-05-10T14:16:57;1.95;;;0.70;;
4305;SDS011;2166;49.926;8.608;2023-05-10T14:19:26;3.03;;;0.73;;
4305;SDS011;2166;49.926;8.608;2023-05-10T14:21:59;4.18;;;1.00;;
4305;SDS011;2166;49.926;8.608;2023-05-10T14:24:28;3.33;;;0.80;;
4305;SDS011;2166;49.926;8.608;2023-05-10T14:26:56;4.50;;;0.70;;
4305;SDS011;2166;49.926;8.608;2023-05-10T14:29:25;2.22;;;0.60;;
4305;SDS011;2166;49.926;8.608;2023-05-10T14:31:54;1.98;;;0.80;;
4305;SDS011;2166;49.926;8.608;2023-05-10T14:34:22;2.35;;;0.80;;
4305;SDS011;2166;49.926;8.608;2023-05-10T14:36:51;2.40;;;0.60;;
4305;SDS011;2166;49.926;8.608;2023-05-10T14:39:20;6.45;;;0.88;;
4305;SDS011;2166;49.926;8.608;2023-05-10T14:41:50;2.78;;;1.02;;
4305;SDS011;2166;49.926;8.608;2023-05-10T14:44:20;3.08;;;0.82;;
4305;SDS011;2166;49.926;8.608;2023-05-10T14:46:48;4.72;;;0.90;;
4305;SDS011;2166;49.926;8.608;2023-05-10T14:49:17;4.40;;;0.75;;
4305;SDS011;2166;49.926;8.608;2023-05-10T14:51:45;2.13;;;0.77;;
4305;SDS011;2166;49.926;8.608;2023-05-10T14:54:15;3.20;;;0.65;;
4305;SDS011;2166;49.926;8.608;2023-05-10T14:56:45;2.25;;;0.93;;
4305;SDS011;2166;49.926;8.608;2023-05-10T14:59:16;4.60;;;1.17;;
4305;SDS011;2166;49.926;8.608;2023-05-10T15:01:47;2.65;;;0.75;;
4305;SDS011;2166;49.926;8.608;2023-05-10T15:04:16;3.95;;;0.80;;
4305;SDS011;2166;49.926;8.608;2023-05-10T15:06:45;1.98;;;0.60;;
4305;SDS011;2166;49.926;8.608;2023-05-10T15:09:14;1.30;;;0.60;;
4305;SDS011;2166;49.926;8.608;2023-05-10T15:11:44;3.65;;;0.93;;
4305;SDS011;2166;49.926;8.608;2023-05-10T15:14:17;3.08;;;0.60;;
4305;SDS011;2166;49.926;8.608;2023-05-10T15:16:46;4.82;;;0.82;;
4305;SDS011;2166;49.926;8.608;2023-05-10T15:19:14;4.05;;;0.60;;
4305;SDS011;2166;49.926;8.608;2023-05-10T15:21:43;4.25;;;1.10;;
4305;SDS011;2166;49.926;8.608;2023-05-10T15:24:12;4.22;;;0.95;;
4305;SDS011;2166;49.926;8.608;2023-05-10T15:26:41;3.05;;;0.80;;
4305;SDS011;2166;49.926;8.608;2023-05-10T15:29:12;5.10;;;1.00;;
4305;SDS011;2166;49.926;8.608;2023-05-10T15:31:46;7.28;;;0.80;;
4305;SDS011;2166;49.926;8.608;2023-05-10T15:34:18;3.33;;;0.70;;
4305;SDS011;2166;49.926;8.608;2023-05-10T15:36:47;2.67;;;1.02;;
4305;SDS011;2166;49.926;8.608;2023-05-10T15:39:16;1.70;;;0.77;;
4305;SDS011;2166;49.926;8.608;2023-05-10T15:41:45;1.77;;;0.73;;
4305;SDS011;2166;49.926;8.608;2023-05-10T15:44:17;6.53;;;0.85;;
4305;SDS011;2166;49.926;8.608;2023-05-10T15:46:46;3.25;;;0.75;;
4305;SDS011;2166;49.926;8.608;2023-05-10T15:49:14;2.08;;;0.65;;
4305;SDS011;2166;49.926;8.608;2023-05-10T15:51:45;3.78;;;0.82;;
4305;SDS011;2166;49.926;8.608;2023-05-10T15:54:13;1.48;;;0.50;;